sensor_id;sensor_type;location;lat;lon;timestamp;pressure;altitude;pressure_sealevel;temperature;humidity
20009;BME280;10165;42.662;23.260;2023-03-03T00:01:52;94129.34;;;7.62;65.91
20009;BME280;10165;42.662;23.260;2023-03-03T00:04:19;94123.31;;;7.74;65.42
20009;BME280;10165;42.662;23.260;2023-03-03T00:06:45;94134.34;;;7.43;65.51
20009;BME280;10165;42.662;23.260;2023-03-03T00:09:12;94134.06;;;6.77;68.35
20009;BME280;10165;42.662;23.260;2023-03-03T00:11:39;94124.00;;;7.20;67.92
20009;BME280;10165;42.662;23.260;2023-03-03T00:14:17;94129.97;;;7.38;67.27
20009;BME280;10165;42.662;23.260;2023-03-03T00:16:47;94125.41;;;6.04;70.59
20009;BME280;10165;42.662;23.260;2023-03-03T00:19:17;94126.63;;;7.00;68.72
20009;BME280;10165;42.662;23.260;2023-03-03T00:21:46;94116.22;;;6.86;68.94
20009;BME280;10165;42.662;23.260;2023-03-03T00:24:14;94125.06;;;6.06;71.56
20009;BME280;10165;42.662;23.260;2023-03-03T00:26:52;94123.38;;;6.01;71.07
20009;BME280;10165;42.662;23.260;2023-03-03T00:31:54;94116.44;;;6.35;71.53
20009;BME280;10165;42.662;23.260;2023-03-03T00:34:25;94114.03;;;6.59;71.13
20009;BME280;10165;42.662;23.260;2023-03-03T00:36:54;94109.91;;;6.23;71.78
20009;BME280;10165;42.662;23.260;2023-03-03T00:39:37;94109.47;;;7.18;69.01
20009;BME280;10165;42.662;23.260;2023-03-03T00:42:14;94113.81;;;6.64;70.23
20009;BME280;10165;42.662;23.260;2023-03-03T00:44:58;94100.72;;;7.17;68.36
20009;BME280;10165;42.662;23.260;2023-03-03T00:47:43;94100.00;;;6.79;69.04
20009;BME280;10165;42.662;23.260;2023-03-03T00:52:45;94094.06;;;7.53;67.14
20009;BME280;10165;42.662;23.260;2023-03-03T00:55:17;94091.28;;;7.08;68.39
20009;BME280;10165;42.662;23.260;2023-03-03T00:57:44;94086.47;;;7.01;68.80
20009;BME280;10165;42.662;23.260;2023-03-03T01:00:11;94081.50;;;6.70;69.06
20009;BME280;10165;42.662;23.260;2023-03-03T01:02:38;94071.47;;;7.47;67.65
20009;BME280;10165;42.662;23.260;2023-03-03T01:05:05;94062.53;;;7.31;67.77
20009;BME280;10165;42.662;23.260;2023-03-03T01:07:32;94071.59;;;7.50;67.43
20009;BME280;10165;42.662;23.260;2023-03-03T01:09:58;94066.59;;;7.49;66.48
20009;BME280;10165;42.662;23.260;2023-03-03T01:12:25;94068.41;;;7.57;66.90
20009;BME280;10165;42.662;23.260;2023-03-03T01:14:52;94067.69;;;7.06;68.33
20009;BME280;10165;42.662;23.260;2023-03-03T01:17:20;94060.31;;;7.12;68.09
20009;BME280;10165;42.662;23.260;2023-03-03T01:19:47;94064.19;;;7.14;67.83
20009;BME280;10165;42.662;23.260;2023-03-03T01:22:14;94071.59;;;7.30;68.04
20009;BME280;10165;42.662;23.260;2023-03-03T01:24:41;94072.88;;;7.65;67.21
20009;BME280;10165;42.662;23.260;2023-03-03T01:27:07;94066.19;;;7.59;66.90
20009;BME280;10165;42.662;23.260;2023-03-03T01:29:34;94064.41;;;6.80;69.06
20009;BME280;10165;42.662;23.260;2023-03-03T01:32:01;94064.44;;;7.21;68.32
20009;BME280;10165;42.662;23.260;2023-03-03T01:34:27;94069.25;;;7.49;67.64
20009;BME280;10165;42.662;23.260;2023-03-03T01:36:54;94058.59;;;7.69;66.93
20009;BME280;10165;42.662;23.260;2023-03-03T01:39:21;94061.38;;;7.73;66.18
20009;BME280;10165;42.662;23.260;2023-03-03T01:41:47;94056.63;;;7.79;66.62
20009;BME280;10165;42.662;23.260;2023-03-03T01:44:14;94054.31;;;7.77;66.05
20009;BME280;10165;42.662;23.260;2023-03-03T01:47:09;94060.31;;;7.53;66.57
20009;BME280;10165;42.662;23.260;2023-03-03T01:52:30;94057.91;;;7.40;67.10
20009;BME280;10165;42.662;23.260;2023-03-03T01:55:02;94051.81;;;6.68;68.95
20009;BME280;10165;42.662;23.260;2023-03-03T01:57:32;94052.50;;;6.86;69.11
20009;BME280;10165;42.662;23.260;2023-03-03T02:00:01;94049.09;;;6.86;69.14
20009;BME280;10165;42.662;23.260;2023-03-03T02:02:29;94053.41;;;6.90;69.23
20009;BME280;10165;42.662;23.260;2023-03-03T02:04:57;94049.25;;;7.31;67.52
20009;BME280;10165;42.662;23.260;2023-03-03T02:07:25;94052.41;;;7.03;67.79
20009;BME280;10165;42.662;23.260;2023-03-03T02:12:22;94047.88;;;6.07;72.35
20009;BME280;10165;42.662;23.260;2023-03-03T02:14:51;94052.97;;;6.21;71.72
20009;BME280;10165;42.662;23.260;2023-03-03T02:17:17;94046.28;;;6.53;70.99
20009;BME280;10165;42.662;23.260;2023-03-03T02:20:02;94049.50;;;6.67;69.97
20009;BME280;10165;42.662;23.260;2023-03-03T02:22:47;94047.69;;;6.59;71.26
20009;BME280;10165;42.662;23.260;2023-03-03T02:25:23;94049.81;;;7.15;68.99
20009;BME280;10165;42.662;23.260;2023-03-03T02:27:54;94052.28;;;7.20;67.23
20009;BME280;10165;42.662;23.260;2023-03-03T02:30:24;94050.56;;;5.99;72.43
20009;BME280;10165;42.662;23.260;2023-03-03T02:32:51;94043.00;;;6.56;72.62
20009;BME280;10165;42.662;23.260;2023-03-03T02:35:33;94047.72;;;6.80;69.61
20009;BME280;10165;42.662;23.260;2023-03-03T02:38:14;94053.69;;;7.18;68.47
20009;BME280;10165;42.662;23.260;2023-03-03T02:40:52;94042.47;;;7.54;67.58
20009;BME280;10165;42.662;23.260;2023-03-03T02:43:26;94050.88;;;7.23;68.56
20009;BME280;10165;42.662;23.260;2023-03-03T02:45:54;94050.72;;;6.99;69.64
20009;BME280;10165;42.662;23.260;2023-03-03T02:48:21;94049.41;;;6.84;70.38
20009;BME280;10165;42.662;23.260;2023-03-03T02:50:48;94047.66;;;5.66;75.16
20009;BME280;10165;42.662;23.260;2023-03-03T02:53:15;94053.56;;;5.63;75.13
20009;BME280;10165;42.662;23.260;2023-03-03T02:55:42;94041.34;;;6.05;74.19
20009;BME280;10165;42.662;23.260;2023-03-03T02:58:09;94038.06;;;6.46;73.68
20009;BME280;10165;42.662;23.260;2023-03-03T03:00:35;94035.38;;;7.04;70.87
20009;BME280;10165;42.662;23.260;2023-03-03T03:03:02;94037.09;;;7.21;69.55
20009;BME280;10165;42.662;23.260;2023-03-03T03:05:29;94044.13;;;7.46;69.19
20009;BME280;10165;42.662;23.260;2023-03-03T03:07:55;94034.28;;;7.59;68.79
20009;BME280;10165;42.662;23.260;2023-03-03T03:10:22;94032.94;;;7.53;68.31
20009;BME280;10165;42.662;23.260;2023-03-03T03:12:48;94040.44;;;7.39;68.32
20009;BME280;10165;42.662;23.260;2023-03-03T03:15:15;94032.19;;;7.11;69.45
20009;BME280;10165;42.662;23.260;2023-03-03T03:17:43;94034.72;;;7.07;69.83
20009;BME280;10165;42.662;23.260;2023-03-03T03:20:10;94036.22;;;5.91;74.68
20009;BME280;10165;42.662;23.260;2023-03-03T03:22:37;94034.66;;;6.37;73.33
20009;BME280;10165;42.662;23.260;2023-03-03T03:25:03;94035.25;;;6.04;74.64
20009;BME280;10165;42.662;23.260;2023-03-03T03:27:30;94041.16;;;6.48;72.95
20009;BME280;10165;42.662;23.260;2023-03-03T03:29:57;94027.34;;;6.92;71.75
20009;BME280;10165;42.662;23.260;2023-03-03T03:32:24;94033.34;;;6.81;71.67
20009;BME280;10165;42.662;23.260;2023-03-03T03:34:50;94031.81;;;7.21;70.42
20009;BME280;10165;42.662;23.260;2023-03-03T03:37:17;94022.63;;;7.18;70.41
20009;BME280;10165;42.662;23.260;2023-03-03T03:39:43;94025.13;;;7.15;70.13
20009;BME280;10165;42.662;23.260;2023-03-03T03:42:10;94025.06;;;7.24;70.24
20009;BME280;10165;42.662;23.260;2023-03-03T03:44:37;94020.22;;;7.26;70.13
20009;BME280;10165;42.662;23.260;2023-03-03T03:47:04;94020.81;;;5.93;74.45
20009;BME280;10165;42.662;23.260;2023-03-03T03:49:30;94015.88;;;6.50;73.62
20009;BME280;10165;42.662;23.260;2023-03-03T03:51:57;94018.16;;;6.90;71.94
20009;BME280;10165;42.662;23.260;2023-03-03T03:54:24;94016.19;;;6.99;70.96
20009;BME280;10165;42.662;23.260;2023-03-03T03:56:50;94017.56;;;7.26;70.30
20009;BME280;10165;42.662;23.260;2023-03-03T03:59:17;94010.44;;;7.17;69.92
20009;BME280;10165;42.662;23.260;2023-03-03T04:01:43;94013.00;;;7.05;70.71
20009;BME280;10165;42.662;23.260;2023-03-03T04:04:10;94008.59;;;7.30;69.49
20009;BME280;10165;42.662;23.260;2023-03-03T04:06:37;94017.38;;;7.31;70.14
20009;BME280;10165;42.662;23.260;2023-03-03T04:09:04;94007.06;;;6.88;70.71
20009;BME280;10165;42.662;23.260;2023-03-03T04:11:30;94010.31;;;6.64;71.82
20009;BME280;10165;42.662;23.260;2023-03-03T04:13:57;94010.03;;;5.81;73.29
20009;BME280;10165;42.662;23.260;2023-03-03T04:16:24;94012.31;;;6.46;72.92
20009;BME280;10165;42.662;23.260;2023-03-03T04:18:50;94012.53;;;6.62;72.08
20009;BME280;10165;42.662;23.260;2023-03-03T04:21:17;94010.94;;;6.90;71.16
20009;BME280;10165;42.662;23.260;2023-03-03T04:23:44;94007.47;;;7.19;70.70
20009;BME280;10165;42.662;23.260;2023-03-03T04:26:10;94010.75;;;7.16;70.65
20009;BME280;10165;42.662;23.260;2023-03-03T04:28:37;94003.03;;;7.02;70.67
20009;BME280;10165;42.662;23.260;2023-03-03T04:31:04;94007.44;;;6.78;71.43
20009;BME280;10165;42.662;23.260;2023-03-03T04:33:30;94004.63;;;6.53;71.09
20009;BME280;10165;42.662;23.260;2023-03-03T04:35:57;94003.19;;;6.85;71.32
20009;BME280;10165;42.662;23.260;2023-03-03T04:38:24;94004.56;;;7.12;70.27
20009;BME280;10165;42.662;23.260;2023-03-03T04:40:51;94012.44;;;6.50;72.23
20009;BME280;10165;42.662;23.260;2023-03-03T04:43:18;94010.06;;;6.28;71.83
20009;BME280;10165;42.662;23.260;2023-03-03T04:45:44;94012.16;;;6.72;72.23
20009;BME280;10165;42.662;23.260;2023-03-03T04:48:11;94003.19;;;6.85;71.58
20009;BME280;10165;42.662;23.260;2023-03-03T04:50:38;94016.94;;;6.79;71.74
20009;BME280;10165;42.662;23.260;2023-03-03T04:53:05;94005.63;;;6.69;71.96
20009;BME280;10165;42.662;23.260;2023-03-03T04:55:31;94006.31;;;6.58;72.70
20009;BME280;10165;42.662;23.260;2023-03-03T04:57:58;94010.53;;;6.80;71.87
20009;BME280;10165;42.662;23.260;2023-03-03T05:00:25;94014.09;;;6.63;72.48
20009;BME280;10165;42.662;23.260;2023-03-03T05:02:52;94010.03;;;6.86;72.19
20009;BME280;10165;42.662;23.260;2023-03-03T05:05:18;94015.63;;;6.93;71.90
20009;BME280;10165;42.662;23.260;2023-03-03T05:07:45;94019.69;;;6.91;71.62
20009;BME280;10165;42.662;23.260;2023-03-03T05:10:12;94016.69;;;6.42;73.58
20009;BME280;10165;42.662;23.260;2023-03-03T05:12:38;94020.38;;;6.58;73.17
20009;BME280;10165;42.662;23.260;2023-03-03T05:15:06;94031.34;;;6.10;74.10
20009;BME280;10165;42.662;23.260;2023-03-03T05:17:32;94018.56;;;6.71;73.06
20009;BME280;10165;42.662;23.260;2023-03-03T05:19:59;94017.84;;;6.83;72.41
20009;BME280;10165;42.662;23.260;2023-03-03T05:22:29;94018.91;;;6.90;72.31
20009;BME280;10165;42.662;23.260;2023-03-03T05:24:56;94014.06;;;6.92;72.24
20009;BME280;10165;42.662;23.260;2023-03-03T05:27:22;94030.00;;;6.92;72.11
20009;BME280;10165;42.662;23.260;2023-03-03T05:29:49;94016.06;;;6.95;72.55
20009;BME280;10165;42.662;23.260;2023-03-03T05:32:17;94023.44;;;7.31;71.96
20009;BME280;10165;42.662;23.260;2023-03-03T05:34:44;94024.78;;;6.75;71.58
20009;BME280;10165;42.662;23.260;2023-03-03T05:37:11;94024.25;;;6.61;72.12
20009;BME280;10165;42.662;23.260;2023-03-03T05:39:38;94032.13;;;6.02;74.50
20009;BME280;10165;42.662;23.260;2023-03-03T05:42:04;94022.78;;;6.43;74.83
20009;BME280;10165;42.662;23.260;2023-03-03T05:44:31;94026.44;;;6.59;74.38
20009;BME280;10165;42.662;23.260;2023-03-03T05:46:58;94026.13;;;6.90;73.09
20009;BME280;10165;42.662;23.260;2023-03-03T05:49:25;94028.81;;;7.02;72.86
20009;BME280;10165;42.662;23.260;2023-03-03T05:51:52;94029.47;;;6.99;72.88
20009;BME280;10165;42.662;23.260;2023-03-03T05:54:18;94029.41;;;7.07;72.30
20009;BME280;10165;42.662;23.260;2023-03-03T05:56:45;94029.47;;;6.11;76.26
20009;BME280;10165;42.662;23.260;2023-03-03T05:59:11;94031.91;;;6.62;74.50
20009;BME280;10165;42.662;23.260;2023-03-03T06:01:38;94028.06;;;7.01;73.07
20009;BME280;10165;42.662;23.260;2023-03-03T06:04:05;94032.03;;;6.87;72.50
20009;BME280;10165;42.662;23.260;2023-03-03T06:06:31;94031.75;;;6.59;74.16
20009;BME280;10165;42.662;23.260;2023-03-03T06:08:58;94036.09;;;6.25;73.83
20009;BME280;10165;42.662;23.260;2023-03-03T06:11:25;94030.22;;;5.30;77.37
20009;BME280;10165;42.662;23.260;2023-03-03T06:13:51;94038.28;;;6.32;76.26
20009;BME280;10165;42.662;23.260;2023-03-03T06:16:18;94034.31;;;6.76;73.32
20009;BME280;10165;42.662;23.260;2023-03-03T06:18:47;94037.19;;;7.12;71.84
20009;BME280;10165;42.662;23.260;2023-03-03T06:21:13;94040.19;;;7.32;71.55
20009;BME280;10165;42.662;23.260;2023-03-03T06:23:40;94044.00;;;7.01;72.54
20009;BME280;10165;42.662;23.260;2023-03-03T06:26:07;94040.88;;;7.41;71.40
20009;BME280;10165;42.662;23.260;2023-03-03T06:28:33;94038.06;;;7.58;71.55
20009;BME280;10165;42.662;23.260;2023-03-03T06:31:00;94042.50;;;7.12;71.80
20009;BME280;10165;42.662;23.260;2023-03-03T06:33:27;94046.69;;;7.13;71.93
20009;BME280;10165;42.662;23.260;2023-03-03T06:35:54;94048.44;;;7.09;71.87
20009;BME280;10165;42.662;23.260;2023-03-03T06:38:20;94048.31;;;6.18;75.20
20009;BME280;10165;42.662;23.260;2023-03-03T06:40:47;94040.09;;;7.19;73.46
20009;BME280;10165;42.662;23.260;2023-03-03T06:43:14;94040.47;;;6.89;72.71
20009;BME280;10165;42.662;23.260;2023-03-03T06:45:41;94045.78;;;7.09;71.91
20009;BME280;10165;42.662;23.260;2023-03-03T06:48:08;94046.31;;;7.44;70.66
20009;BME280;10165;42.662;23.260;2023-03-03T06:50:35;94049.44;;;7.46;71.00
20009;BME280;10165;42.662;23.260;2023-03-03T06:53:13;94062.44;;;6.39;73.03
20009;BME280;10165;42.662;23.260;2023-03-03T06:55:41;94055.03;;;6.53;74.17
20009;BME280;10165;42.662;23.260;2023-03-03T06:58:15;94051.28;;;6.84;74.02
20009;BME280;10165;42.662;23.260;2023-03-03T07:00:44;94051.69;;;6.36;73.92
20009;BME280;10165;42.662;23.260;2023-03-03T07:03:14;94057.28;;;6.72;73.78
20009;BME280;10165;42.662;23.260;2023-03-03T07:05:41;94061.47;;;7.23;72.74
20009;BME280;10165;42.662;23.260;2023-03-03T07:08:12;94060.31;;;7.33;71.98
20009;BME280;10165;42.662;23.260;2023-03-03T07:10:40;94060.06;;;6.76;73.78
20009;BME280;10165;42.662;23.260;2023-03-03T07:13:33;94058.53;;;6.95;72.42
20009;BME280;10165;42.662;23.260;2023-03-03T07:16:08;94064.00;;;7.19;72.35
20009;BME280;10165;42.662;23.260;2023-03-03T07:21:33;94062.06;;;7.29;72.65
20009;BME280;10165;42.662;23.260;2023-03-03T07:24:17;94055.00;;;7.33;72.28
20009;BME280;10165;42.662;23.260;2023-03-03T07:26:47;94055.25;;;6.98;71.89
20009;BME280;10165;42.662;23.260;2023-03-03T07:29:20;94056.34;;;7.18;72.59
20009;BME280;10165;42.662;23.260;2023-03-03T07:31:48;94060.72;;;5.88;75.63
20009;BME280;10165;42.662;23.260;2023-03-03T07:34:37;94055.84;;;6.74;74.54
20009;BME280;10165;42.662;23.260;2023-03-03T07:37:34;94050.06;;;7.22;72.92
20009;BME280;10165;42.662;23.260;2023-03-03T07:42:52;94050.34;;;7.30;72.07
20009;BME280;10165;42.662;23.260;2023-03-03T07:45:30;94052.28;;;7.00;72.95
20009;BME280;10165;42.662;23.260;2023-03-03T07:48:13;94051.50;;;6.99;72.20
20009;BME280;10165;42.662;23.260;2023-03-03T07:50:45;94047.56;;;7.47;71.55
20009;BME280;10165;42.662;23.260;2023-03-03T07:53:24;94048.28;;;7.35;71.02
20009;BME280;10165;42.662;23.260;2023-03-03T07:55:51;94037.66;;;7.68;71.41
20009;BME280;10165;42.662;23.260;2023-03-03T07:58:22;94040.47;;;7.84;70.77
20009;BME280;10165;42.662;23.260;2023-03-03T08:03:57;94040.13;;;7.52;72.81
20009;BME280;10165;42.662;23.260;2023-03-03T08:06:59;94041.84;;;8.02;69.85
20009;BME280;10165;42.662;23.260;2023-03-03T08:14:37;94041.97;;;7.93;71.51
20009;BME280;10165;42.662;23.260;2023-03-03T08:17:20;94047.88;;;7.25;70.88
20009;BME280;10165;42.662;23.260;2023-03-03T08:19:49;94040.81;;;6.20;74.80
20009;BME280;10165;42.662;23.260;2023-03-03T08:22:19;94035.69;;;6.53;76.38
20009;BME280;10165;42.662;23.260;2023-03-03T08:24:55;94039.00;;;7.20;73.96
20009;BME280;10165;42.662;23.260;2023-03-03T08:27:23;94028.34;;;7.62;71.40
20009;BME280;10165;42.662;23.260;2023-03-03T08:29:50;94029.16;;;7.42;71.60
20009;BME280;10165;42.662;23.260;2023-03-03T08:32:17;94027.50;;;7.70;71.99
20009;BME280;10165;42.662;23.260;2023-03-03T08:34:45;94029.41;;;7.82;70.66
20009;BME280;10165;42.662;23.260;2023-03-03T08:37:12;94030.44;;;6.94;72.33
20009;BME280;10165;42.662;23.260;2023-03-03T08:39:39;94027.44;;;6.75;73.68
20009;BME280;10165;42.662;23.260;2023-03-03T08:42:06;94024.78;;;7.58;71.16
20009;BME280;10165;42.662;23.260;2023-03-03T08:44:32;94021.56;;;7.97;71.08
20009;BME280;10165;42.662;23.260;2023-03-03T08:47:02;94017.59;;;8.03;70.65
20009;BME280;10165;42.662;23.260;2023-03-03T08:49:29;94035.91;;;7.72;71.06
20009;BME280;10165;42.662;23.260;2023-03-03T08:51:57;94031.44;;;7.31;72.40
20009;BME280;10165;42.662;23.260;2023-03-03T08:54:29;94029.84;;;7.84;71.81
20009;BME280;10165;42.662;23.260;2023-03-03T08:57:00;94021.97;;;8.32;71.08
20009;BME280;10165;42.662;23.260;2023-03-03T08:59:26;94028.03;;;8.21;71.10
20009;BME280;10165;42.662;23.260;2023-03-03T09:01:53;94033.66;;;8.07;72.01
20009;BME280;10165;42.662;23.260;2023-03-03T09:04:20;94035.44;;;8.03;71.40
20009;BME280;10165;42.662;23.260;2023-03-03T09:06:47;94029.38;;;8.27;70.10
20009;BME280;10165;42.662;23.260;2023-03-03T09:09:14;94030.16;;;7.82;70.52
20009;BME280;10165;42.662;23.260;2023-03-03T09:11:42;94034.00;;;8.17;69.36
20009;BME280;10165;42.662;23.260;2023-03-03T09:14:13;94027.78;;;8.01;68.59
20009;BME280;10165;42.662;23.260;2023-03-03T09:16:49;94029.09;;;7.95;69.12
20009;BME280;10165;42.662;23.260;2023-03-03T09:19:29;94032.16;;;7.73;70.16
20009;BME280;10165;42.662;23.260;2023-03-03T09:22:00;94028.00;;;7.96;69.60
20009;BME280;10165;42.662;23.260;2023-03-03T09:24:29;94023.09;;;8.43;68.98
20009;BME280;10165;42.662;23.260;2023-03-03T09:26:57;94024.84;;;9.00;66.43
20009;BME280;10165;42.662;23.260;2023-03-03T09:29:26;94031.88;;;8.68;65.74
20009;BME280;10165;42.662;23.260;2023-03-03T09:31:59;94031.44;;;8.66;67.47
20009;BME280;10165;42.662;23.260;2023-03-03T09:34:37;94033.38;;;8.93;67.60
20009;BME280;10165;42.662;23.260;2023-03-03T09:37:26;94033.09;;;8.46;66.28
20009;BME280;10165;42.662;23.260;2023-03-03T09:39:55;94034.28;;;8.37;67.33
20009;BME280;10165;42.662;23.260;2023-03-03T09:48:57;94026.72;;;8.27;68.26
20009;BME280;10165;42.662;23.260;2023-03-03T09:56:53;94020.03;;;8.21;68.54
20009;BME280;10165;42.662;23.260;2023-03-03T10:05:28;94018.88;;;8.30;69.20
20009;BME280;10165;42.662;23.260;2023-03-03T10:08:24;94025.88;;;8.35;69.57
20009;BME280;10165;42.662;23.260;2023-03-03T10:11:03;94024.25;;;8.09;70.58
20009;BME280;10165;42.662;23.260;2023-03-03T10:19:46;94020.06;;;8.08;70.46
20009;BME280;10165;42.662;23.260;2023-03-03T10:22:23;94017.38;;;8.21;70.05
20009;BME280;10165;42.662;23.260;2023-03-03T10:33:25;94008.13;;;8.51;68.53
20009;BME280;10165;42.662;23.260;2023-03-03T10:39:02;94000.59;;;8.77;67.54
20009;BME280;10165;42.662;23.260;2023-03-03T10:53:34;93994.03;;;8.75;69.00
20009;BME280;10165;42.662;23.260;2023-03-03T10:56:21;93995.69;;;8.67;68.35
20009;BME280;10165;42.662;23.260;2023-03-03T10:59:03;93992.03;;;8.59;68.66
20009;BME280;10165;42.662;23.260;2023-03-03T11:12:50;93975.63;;;8.70;70.07
20009;BME280;10165;42.662;23.260;2023-03-03T11:20:38;93961.09;;;8.18;72.22
20009;BME280;10165;42.662;23.260;2023-03-03T11:31:55;93971.41;;;8.44;71.64
20009;BME280;10165;42.662;23.260;2023-03-03T11:43:44;93963.97;;;8.13;72.04
20009;BME280;10165;42.662;23.260;2023-03-03T11:46:21;93960.34;;;8.54;71.79
20009;BME280;10165;42.662;23.260;2023-03-03T11:49:13;93962.31;;;9.09;70.16
20009;BME280;10165;42.662;23.260;2023-03-03T11:54:43;93955.91;;;8.46;71.62
20009;BME280;10165;42.662;23.260;2023-03-03T12:00:02;93951.25;;;8.31;72.61
20009;BME280;10165;42.662;23.260;2023-03-03T12:41:33;93948.75;;;8.02;77.00
20009;BME280;10165;42.662;23.260;2023-03-03T12:44:23;93948.31;;;8.24;76.23
20009;BME280;10165;42.662;23.260;2023-03-03T13:04:10;93939.09;;;8.82;75.46
20009;BME280;10165;42.662;23.260;2023-03-03T13:06:49;93941.56;;;8.27;74.88
20009;BME280;10165;42.662;23.260;2023-03-03T13:14:50;93943.38;;;8.47;75.85
20009;BME280;10165;42.662;23.260;2023-03-03T13:17:41;93932.31;;;8.85;74.80
20009;BME280;10165;42.662;23.260;2023-03-03T13:23:07;93932.59;;;8.07;75.72
20009;BME280;10165;42.662;23.260;2023-03-03T13:31:17;93939.78;;;8.06;76.04
20009;BME280;10165;42.662;23.260;2023-03-03T13:33:57;93936.28;;;8.39;75.03
20009;BME280;10165;42.662;23.260;2023-03-03T13:39:03;93946.47;;;8.49;74.65
20009;BME280;10165;42.662;23.260;2023-03-03T13:44:41;93931.53;;;8.84;73.30
20009;BME280;10165;42.662;23.260;2023-03-03T13:52:23;93924.97;;;9.22;72.97
20009;BME280;10165;42.662;23.260;2023-03-03T13:55:09;93928.66;;;9.17;73.48
20009;BME280;10165;42.662;23.260;2023-03-03T14:00:35;93936.00;;;9.36;72.54
20009;BME280;10165;42.662;23.260;2023-03-03T14:05:35;93930.22;;;9.18;71.88
20009;BME280;10165;42.662;23.260;2023-03-03T14:08:11;93931.06;;;9.50;70.94
20009;BME280;10165;42.662;23.260;2023-03-03T14:10:52;93938.84;;;8.87;73.20
20009;BME280;10165;42.662;23.260;2023-03-03T14:13:46;93932.16;;;8.93;73.39
20009;BME280;10165;42.662;23.260;2023-03-03T14:16:21;93928.75;;;9.21;73.46
20009;BME280;10165;42.662;23.260;2023-03-03T14:19:30;93927.97;;;9.20;73.89
20009;BME280;10165;42.662;23.260;2023-03-03T14:22:17;93930.31;;;8.82;73.20
20009;BME280;10165;42.662;23.260;2023-03-03T14:25:05;93918.94;;;8.97;73.00
20009;BME280;10165;42.662;23.260;2023-03-03T14:30:25;93914.59;;;8.77;74.31
20009;BME280;10165;42.662;23.260;2023-03-03T14:35:41;93917.81;;;9.10;72.95
20009;BME280;10165;42.662;23.260;2023-03-03T14:38:17;93924.38;;;8.60;73.72
20009;BME280;10165;42.662;23.260;2023-03-03T14:40:46;93918.72;;;8.62;74.65
20009;BME280;10165;42.662;23.260;2023-03-03T14:43:25;93916.63;;;8.55;75.07
20009;BME280;10165;42.662;23.260;2023-03-03T14:45:52;93913.25;;;9.10;74.58
20009;BME280;10165;42.662;23.260;2023-03-03T14:48:24;93921.38;;;9.02;73.62
20009;BME280;10165;42.662;23.260;2023-03-03T14:50:58;93927.56;;;8.78;74.25
20009;BME280;10165;42.662;23.260;2023-03-03T14:53:42;93923.44;;;8.93;74.00
20009;BME280;10165;42.662;23.260;2023-03-03T14:58:49;93914.00;;;8.31;76.50
20009;BME280;10165;42.662;23.260;2023-03-03T15:03:57;93916.50;;;8.52;75.86
20009;BME280;10165;42.662;23.260;2023-03-03T15:09:37;93907.41;;;8.65;74.64
20009;BME280;10165;42.662;23.260;2023-03-03T15:12:36;93919.88;;;8.89;73.39
20009;BME280;10165;42.662;23.260;2023-03-03T15:17:53;93910.66;;;8.46;74.38
20009;BME280;10165;42.662;23.260;2023-03-03T15:28:38;93909.25;;;8.89;73.22
20009;BME280;10165;42.662;23.260;2023-03-03T15:37:38;93922.44;;;9.13;72.75
20009;BME280;10165;42.662;23.260;2023-03-03T15:40:26;93921.91;;;9.20;72.54
20009;BME280;10165;42.662;23.260;2023-03-03T15:43:04;93916.00;;;9.14;72.49
20009;BME280;10165;42.662;23.260;2023-03-03T15:56:35;93933.38;;;8.56;74.33
20009;BME280;10165;42.662;23.260;2023-03-03T16:02:19;93936.16;;;8.47;74.37
20009;BME280;10165;42.662;23.260;2023-03-03T16:05:06;93935.91;;;8.77;73.98
20009;BME280;10165;42.662;23.260;2023-03-03T16:07:57;93938.84;;;8.87;73.78
20009;BME280;10165;42.662;23.260;2023-03-03T16:15:49;93955.75;;;8.79;73.85
20009;BME280;10165;42.662;23.260;2023-03-03T16:18:44;93950.44;;;8.55;74.01
20009;BME280;10165;42.662;23.260;2023-03-03T16:23:58;93953.72;;;9.00;72.84
20009;BME280;10165;42.662;23.260;2023-03-03T16:30:02;93943.53;;;8.78;73.12
20009;BME280;10165;42.662;23.260;2023-03-03T16:32:39;93955.78;;;9.07;72.67
20009;BME280;10165;42.662;23.260;2023-03-03T16:35:18;93955.50;;;8.96;72.73
20009;BME280;10165;42.662;23.260;2023-03-03T16:37:58;93961.94;;;8.83;72.99
20009;BME280;10165;42.662;23.260;2023-03-03T16:40:35;93965.88;;;8.74;73.48
20009;BME280;10165;42.662;23.260;2023-03-03T16:45:58;93969.16;;;8.83;73.18
20009;BME280;10165;42.662;23.260;2023-03-03T16:48:39;93973.81;;;8.86;73.65
20009;BME280;10165;42.662;23.260;2023-03-03T16:51:24;93983.66;;;8.97;72.95
20009;BME280;10165;42.662;23.260;2023-03-03T16:54:07;93985.22;;;8.86;73.38
20009;BME280;10165;42.662;23.260;2023-03-03T16:56:47;93992.22;;;9.03;72.98
20009;BME280;10165;42.662;23.260;2023-03-03T16:59:29;93994.28;;;9.09;72.93
20009;BME280;10165;42.662;23.260;2023-03-03T17:07:53;93990.91;;;9.25;72.03
20009;BME280;10165;42.662;23.260;2023-03-03T17:16:07;93995.34;;;9.33;70.88
20009;BME280;10165;42.662;23.260;2023-03-03T17:18:55;93996.88;;;9.34;71.38
20009;BME280;10165;42.662;23.260;2023-03-03T17:24:42;93996.59;;;9.51;70.47
20009;BME280;10165;42.662;23.260;2023-03-03T17:27:32;94002.78;;;9.55;70.52
20009;BME280;10165;42.662;23.260;2023-03-03T17:33:30;94006.47;;;9.23;70.88
20009;BME280;10165;42.662;23.260;2023-03-03T17:39:19;94013.75;;;9.38;71.23
20009;BME280;10165;42.662;23.260;2023-03-03T17:42:06;94015.19;;;9.35;70.85
20009;BME280;10165;42.662;23.260;2023-03-03T17:44:45;94031.50;;;9.46;70.77
20009;BME280;10165;42.662;23.260;2023-03-03T17:47:30;94033.72;;;9.44;70.44
20009;BME280;10165;42.662;23.260;2023-03-03T17:56:02;94037.66;;;9.34;71.58
20009;BME280;10165;42.662;23.260;2023-03-03T17:58:59;94044.88;;;9.22;70.83
20009;BME280;10165;42.662;23.260;2023-03-03T18:05:23;94049.34;;;9.05;71.42
20009;BME280;10165;42.662;23.260;2023-03-03T18:21:57;94050.59;;;9.08;70.62
20009;BME280;10165;42.662;23.260;2023-03-03T18:40:57;94063.91;;;8.72;72.41
20009;BME280;10165;42.662;23.260;2023-03-03T18:54:21;94078.44;;;9.10;70.79
20009;BME280;10165;42.662;23.260;2023-03-03T19:04:41;94086.19;;;8.10;75.38